SKSM/SMR METAR and TAF weather

Enter ICAO airport designator
Station Type Date Time Source
SKSM METAR 2019/10/15 19:00 UTC NOAA

SKSM 151900Z 24004KT 9999 FEW020TCU 33/26 A2983 RMK TCU/SE


Station Type Date Time Source
SKSM Decoded METAR 2019/10/15 19:00 UTC NOAA

Santa Marta / Simon Bolivar, Colombia (SKSM) 11-08N 074-14W 14M
Oct 15, 2019 - 03:00 PM EDT / 2019.10.15 1900 UTC
Wind: from the WSW (240 degrees) at 5 MPH (4 KT):0
Visibility: greater than 7 mile(s):0
Sky conditions: mostly clear
Weather: Towering cumulus clouds observed
Temperature: 91 F (33 C)
Heat index: 106.2 F (41.2 C):1
Dew Point: 78 F (26 C)
Relative Humidity: 66%
Pressure (altimeter): 29.83 in. Hg (1010 hPa)
ob: SKSM 151900Z 24004KT 9999 FEW020TCU 33/26 A2983 RMK TCU/SE
cycle: 19

Station Type Date Time Source
SKSM TAF UTC NOAA

Error!

Example: see airport list